Time;durP1;ratioP1;P1;durP2;ratioP2;P2;SDS_P1;SDS_P2;PMS_P1;PMS_P2;Temp;Humidity;BMP_temperature;BMP_pressure;BME280_temperature;BME280_humidity;BME280_pressure;Samples;Min_cycle;Max_cycle;Signal;HPM_P1;HPM_P2
2022/08/26 00:00:20;;;;;;;;;3.00;3.00;;;;;;;;5100961;27;45330;-74
2022/08/26 00:02:45;;;;;;;;;2.00;2.00;;;;;;;;5099951;27;45559;-75
2022/08/26 00:05:10;;;;;;;;;4.67;2.00;;;;;;;;5101136;27;45292;-75
2022/08/26 00:07:36;;;;;;;;;2.33;2.33;;;;;;;;5100724;27;47108;-75
2022/08/26 00:10:01;;;;;;;;;5.00;3.00;;;;;;;;5100990;27;45418;-76
2022/08/26 00:12:26;;;;;;;;;4.33;2.33;;;;;;;;5100846;27;45338;-75
2022/08/26 00:14:51;;;;;;;;;3.00;2.00;;;;;;;;5101082;27;45429;-74
2022/08/26 00:17:17;;;;;;;;;2.00;2.00;;;;;;;;5100236;27;46294;-75
2022/08/26 00:19:42;;;;;;;;;4.00;3.00;;;;;;;;5099615;27;45487;-76
2022/08/26 00:22:08;;;;;;;;;3.00;3.00;;;;;;;;5099915;27;45294;-74
2022/08/26 00:24:33;;;;;;;;;2.00;2.00;;;;;;;;5100630;27;45286;-75
2022/08/26 00:26:58;;;;;;;;;4.00;2.33;;;;;;;;5100601;27;46861;-75
2022/08/26 00:29:24;;;;;;;;;3.00;3.00;;;;;;;;5100473;27;45325;-74
2022/08/26 00:31:49;;;;;;;;;2.00;2.00;;;;;;;;5100777;27;45315;-76
2022/08/26 00:34:15;;;;;;;;;7.00;4.00;;;;;;;;5100507;27;45364;-76
2022/08/26 00:36:41;;;;;;;;;4.33;3.33;;;;;;;;5099367;27;46358;-77
2022/08/26 00:39:06;;;;;;;;;4.67;4.00;;;;;;;;5100505;27;45205;-75
2022/08/26 00:41:32;;;;;;;;;7.67;4.00;;;;;;;;5100487;27;45232;-75
2022/08/26 00:43:58;;;;;;;;;4.33;3.00;;;;;;;;5100300;27;45194;-74
2022/08/26 00:46:30;;;;;;;;;4.67;3.00;;;;;;;;5099985;27;46404;-75
2022/08/26 00:49:08;;;;;;;;;5.33;4.00;;;;;;;;5100205;27;45498;-74
2022/08/26 00:51:38;;;;;;;;;4.00;4.00;;;;;;;;5100199;27;45229;-75
2022/08/26 00:54:04;;;;;;;;;2.67;2.67;;;;;;;;5100007;27;45308;-75
2022/08/26 00:56:35;;;;;;;;;2.67;2.00;;;;;;;;5099905;27;46517;-73
2022/08/26 00:59:02;;;;;;;;;3.67;3.00;;;;;;;;5099939;27;45336;-74
2022/08/26 01:01:27;;;;;;;;;4.00;4.00;;;;;;;;5100298;27;45432;-74
2022/08/26 01:03:54;;;;;;;;;1.67;1.67;;;;;;;;5100051;27;45370;-75
2022/08/26 01:06:19;;;;;;;;;2.00;2.00;;;;;;;;5099871;27;47556;-74
2022/08/26 01:08:44;;;;;;;;;2.00;2.00;;;;;;;;5099883;27;45224;-76
2022/08/26 01:11:10;;;;;;;;;2.00;2.00;;;;;;;;5098723;27;45417;-75
2022/08/26 01:13:36;;;;;;;;;1.33;1.33;;;;;;;;5100146;27;45327;-76
2022/08/26 01:16:04;;;;;;;;;2.00;2.00;;;;;;;;5099363;27;46378;-74
2022/08/26 01:18:30;;;;;;;;;2.67;2.00;;;;;;;;5081281;27;45492;-74
2022/08/26 01:21:10;;;;;;;;;2.00;1.00;;;;;;;;5099721;27;45339;-74
2022/08/26 01:23:37;;;;;;;;;3.67;2.67;;;;;;;;5099693;27;45597;-74
2022/08/26 01:26:14;;;;;;;;;1.00;0.67;;;;;;;;5099170;27;47548;-74
2022/08/26 01:28:40;;;;;;;;;1.67;1.00;;;;;;;;5098694;27;45367;-74
2022/08/26 01:31:07;;;;;;;;;4.67;2.00;;;;;;;;5099566;27;45477;-74
2022/08/26 01:33:43;;;;;;;;;4.00;2.33;;;;;;;;5099467;27;45545;-74
2022/08/26 01:36:08;;;;;;;;;6.67;4.33;;;;;;;;5099201;27;47366;-74
2022/08/26 01:38:33;;;;;;;;;2.00;2.00;;;;;;;;5099322;27;45381;-75
2022/08/26 01:40:59;;;;;;;;;3.00;2.00;;;;;;;;5099583;27;45279;-75
2022/08/26 01:43:26;;;;;;;;;4.67;2.33;;;;;;;;5099478;27;45253;-75
2022/08/26 01:45:53;;;;;;;;;3.00;1.67;;;;;;;;5097936;27;46434;-75
2022/08/26 01:48:21;;;;;;;;;3.00;3.00;;;;;;;;5099088;27;45285;-73
2022/08/26 01:50:47;;;;;;;;;1.00;1.00;;;;;;;;5099335;27;45375;-73
2022/08/26 01:53:15;;;;;;;;;1.00;1.00;;;;;;;;5099461;27;45378;-73
2022/08/26 01:55:41;;;;;;;;;3.00;3.00;;;;;;;;5098357;27;45439;-76
2022/08/26 01:58:10;;;;;;;;;4.00;3.00;;;;;;;;5098952;27;45428;-74
2022/08/26 02:00:36;;;;;;;;;4.00;3.00;;;;;;;;5098073;27;45505;-74
2022/08/26 02:03:20;;;;;;;;;3.33;0.33;;;;;;;;5099220;27;45359;-73
2022/08/26 02:06:03;;;;;;;;;2.67;2.67;;;;;;;;5098763;27;45692;-74
2022/08/26 02:08:39;;;;;;;;;1.67;1.67;;;;;;;;5098852;27;45278;-74
2022/08/26 02:11:05;;;;;;;;;4.33;4.00;;;;;;;;5098877;27;45363;-74
2022/08/26 02:13:31;;;;;;;;;2.00;2.00;;;;;;;;5099115;27;45351;-73
2022/08/26 02:15:59;;;;;;;;;2.33;2.00;;;;;;;;5098552;27;46644;-72
2022/08/26 02:18:25;;;;;;;;;1.00;1.00;;;;;;;;5079880;27;45532;-74
2022/08/26 02:20:51;;;;;;;;;1.00;1.00;;;;;;;;5078608;28;45241;-73
2022/08/26 02:23:16;;;;;;;;;2.33;2.33;;;;;;;;5078509;28;45502;-72
2022/08/26 02:25:49;;;;;;;;;1.00;1.00;;;;;;;;5078002;28;47039;-74
2022/08/26 02:28:16;;;;;;;;;3.00;2.00;;;;;;;;5078142;28;45485;-73
2022/08/26 02:30:41;;;;;;;;;3.00;2.00;;;;;;;;5078281;28;45324;-73
2022/08/26 02:33:07;;;;;;;;;6.00;3.00;;;;;;;;5077962;27;45589;-74
2022/08/26 02:35:33;;;;;;;;;1.00;1.00;;;;;;;;5078020;28;46487;-73
2022/08/26 02:37:59;;;;;;;;;4.67;1.33;;;;;;;;5078039;28;45335;-72
2022/08/26 02:40:26;;;;;;;;;5.00;3.00;;;;;;;;5078290;28;45383;-73
2022/08/26 02:42:51;;;;;;;;;2.00;2.00;;;;;;;;5078124;28;45306;-73
2022/08/26 02:45:17;;;;;;;;;2.33;1.00;;;;;;;;5077785;28;46026;-73
2022/08/26 02:47:43;;;;;;;;;2.00;1.00;;;;;;;;5077603;28;45237;-74
2022/08/26 02:50:09;;;;;;;;;1.33;0.33;;;;;;;;5081351;27;45624;-73
2022/08/26 02:52:34;;;;;;;;;1.00;1.00;;;;;;;;5098706;27;45343;-73
2022/08/26 02:54:59;;;;;;;;;5.33;1.00;;;;;;;;5098167;27;45449;-72
2022/08/26 02:57:24;;;;;;;;;2.33;1.00;;;;;;;;5098376;27;45344;-74
2022/08/26 02:59:49;;;;;;;;;2.00;0.00;;;;;;;;5098296;27;45228;-72
2022/08/26 03:02:15;;;;;;;;;3.00;3.00;;;;;;;;5098500;27;45371;-73
2022/08/26 03:04:40;;;;;;;;;1.00;1.00;;;;;;;;5097946;27;46554;-72
2022/08/26 03:07:06;;;;;;;;;0.33;0.33;;;;;;;;5097859;27;45524;-72
2022/08/26 03:09:31;;;;;;;;;2.33;1.00;;;;;;;;5102044;27;45231;-72
2022/08/26 03:11:57;;;;;;;;;1.00;1.00;;;;;;;;5101878;27;45273;-73
2022/08/26 03:14:22;;;;;;;;;1.00;1.00;;;;;;;;5101624;27;46201;-74
2022/08/26 03:16:50;;;;;;;;;4.33;1.00;;;;;;;;5101571;27;45523;-74
2022/08/26 03:19:16;;;;;;;;;2.00;2.00;;;;;;;;5101662;27;45439;-73
2022/08/26 03:21:42;;;;;;;;;3.00;1.00;;;;;;;;5101986;27;45304;-72
2022/08/26 03:24:08;;;;;;;;;1.00;1.00;;;;;;;;5099995;27;47249;-72
2022/08/26 03:26:34;;;;;;;;;3.00;1.33;;;;;;;;5101438;27;45314;-73
2022/08/26 03:31:43;;;;;;;;;1.00;1.00;;;;;;;;5101805;27;45313;-73
2022/08/26 03:34:08;;;;;;;;;1.00;1.00;;;;;;;;5101139;27;45473;-73
2022/08/26 03:36:33;;;;;;;;;2.33;1.00;;;;;;;;5101320;27;45382;-72
2022/08/26 03:38:58;;;;;;;;;0.00;0.00;;;;;;;;5101564;27;45362;-74
2022/08/26 03:41:24;;;;;;;;;1.33;1.33;;;;;;;;5100552;27;45369;-74
2022/08/26 03:43:49;;;;;;;;;1.00;1.00;;;;;;;;5101144;27;46663;-74
2022/08/26 03:46:15;;;;;;;;;1.00;1.00;;;;;;;;5101213;27;45537;-73
2022/08/26 03:48:40;;;;;;;;;3.00;1.00;;;;;;;;5101303;27;45437;-72
2022/08/26 03:51:13;;;;;;;;;1.00;1.00;;;;;;;;5101318;27;45357;-73
2022/08/26 03:53:39;;;;;;;;;0.67;0.67;;;;;;;;5100094;27;48626;-73
2022/08/26 03:56:05;;;;;;;;;1.00;1.00;;;;;;;;5100030;27;45508;-73
2022/08/26 03:58:30;;;;;;;;;1.00;1.00;;;;;;;;5101042;27;45257;-74
2022/08/26 04:00:56;;;;;;;;;1.00;1.00;;;;;;;;5101361;27;45401;-73
2022/08/26 04:06:06;;;;;;;;;1.67;1.00;;;;;;;;5100912;27;45256;-72
2022/08/26 04:08:31;;;;;;;;;2.00;2.00;;;;;;;;5100942;27;45288;-74
2022/08/26 04:10:56;;;;;;;;;2.00;2.00;;;;;;;;5101019;27;45482;-72
2022/08/26 04:13:22;;;;;;;;;1.00;1.00;;;;;;;;5099611;27;47679;-74
2022/08/26 04:15:47;;;;;;;;;2.00;2.00;;;;;;;;5100822;27;45280;-73
2022/08/26 04:18:12;;;;;;;;;4.00;2.33;;;;;;;;5099938;27;45142;-74
2022/08/26 04:20:38;;;;;;;;;4.00;4.00;;;;;;;;5101130;27;45263;-73
2022/08/26 04:23:03;;;;;;;;;2.67;2.00;;;;;;;;5100391;27;46332;-74
2022/08/26 04:25:28;;;;;;;;;4.33;2.00;;;;;;;;5100517;27;45158;-73
2022/08/26 04:27:54;;;;;;;;;1.33;1.33;;;;;;;;5099965;27;45410;-72
2022/08/26 04:30:19;;;;;;;;;2.00;1.00;;;;;;;;5099844;27;45716;-74
2022/08/26 04:32:45;;;;;;;;;1.00;1.00;;;;;;;;5100348;27;45486;-75
2022/08/26 04:35:10;;;;;;;;;4.33;2.67;;;;;;;;5100183;27;45320;-73
2022/08/26 04:37:36;;;;;;;;;3.00;1.33;;;;;;;;5100537;27;45375;-73
2022/08/26 04:40:02;;;;;;;;;1.00;1.00;;;;;;;;5100612;27;45504;-74
2022/08/26 04:42:28;;;;;;;;;10.67;10.33;;;;;;;;5100054;27;47032;-74
2022/08/26 04:44:54;;;;;;;;;4.00;1.33;;;;;;;;5100103;27;45335;-76
2022/08/26 04:47:19;;;;;;;;;1.33;1.33;;;;;;;;5099173;27;45366;-75
2022/08/26 04:49:45;;;;;;;;;1.00;1.00;;;;;;;;5100507;27;45445;-75
2022/08/26 04:52:10;;;;;;;;;2.00;1.00;;;;;;;;5100260;27;46229;-74
2022/08/26 04:54:36;;;;;;;;;1.33;1.00;;;;;;;;5100078;27;45326;-74
2022/08/26 04:57:01;;;;;;;;;3.00;1.00;;;;;;;;5100364;27;45277;-74
2022/08/26 04:59:26;;;;;;;;;4.33;3.00;;;;;;;;5100214;27;45507;-73
2022/08/26 05:01:55;;;;;;;;;4.00;0.33;;;;;;;;5099900;27;45423;-74
2022/08/26 05:04:20;;;;;;;;;2.00;1.00;;;;;;;;5098797;27;45570;-74
2022/08/26 05:06:47;;;;;;;;;2.00;1.00;;;;;;;;5099989;27;45426;-74
2022/08/26 05:09:12;;;;;;;;;2.00;2.00;;;;;;;;5100144;27;45264;-72
2022/08/26 05:11:37;;;;;;;;;1.67;1.00;;;;;;;;5081372;27;46344;-73
2022/08/26 05:14:04;;;;;;;;;3.67;1.00;;;;;;;;5099683;27;45402;-72
2022/08/26 05:16:30;;;;;;;;;3.67;1.00;;;;;;;;5099694;27;45676;-73
2022/08/26 05:18:55;;;;;;;;;2.67;1.67;;;;;;;;5099778;27;45504;-73
2022/08/26 05:21:22;;;;;;;;;3.00;3.00;;;;;;;;5098659;27;46445;-73
2022/08/26 05:23:50;;;;;;;;;3.33;2.33;;;;;;;;5099706;27;45279;-74
2022/08/26 05:26:15;;;;;;;;;1.00;1.00;;;;;;;;5099596;27;45425;-74
2022/08/26 05:28:41;;;;;;;;;1.00;1.00;;;;;;;;5099733;27;45416;-73
2022/08/26 05:31:10;;;;;;;;;2.00;2.00;;;;;;;;5098445;27;46353;-73
2022/08/26 05:33:36;;;;;;;;;3.00;1.67;;;;;;;;5099428;27;45271;-74
2022/08/26 05:36:05;;;;;;;;;1.67;1.67;;;;;;;;5099525;27;46048;-73
2022/08/26 05:38:30;;;;;;;;;2.00;2.00;;;;;;;;5080202;27;45529;-73
2022/08/26 05:40:55;;;;;;;;;2.00;2.00;;;;;;;;5099420;27;46342;-73
2022/08/26 05:43:21;;;;;;;;;0.33;0.33;;;;;;;;5099318;27;45435;-72
2022/08/26 05:45:47;;;;;;;;;1.67;1.67;;;;;;;;5099368;27;45297;-72
2022/08/26 05:48:17;;;;;;;;;13.33;13.33;;;;;;;;5099490;27;45362;-72
2022/08/26 05:50:44;;;;;;;;;1.00;1.00;;;;;;;;5098815;27;47351;-76
2022/08/26 05:53:10;;;;;;;;;2.33;1.00;;;;;;;;5099019;27;45415;-78
2022/08/26 05:55:40;;;;;;;;;1.33;1.33;;;;;;;;5087004;27;45383;-79
2022/08/26 05:58:06;;;;;;;;;2.67;2.00;;;;;;;;5078942;28;45316;-76
2022/08/26 06:00:31;;;;;;;;;3.00;1.00;;;;;;;;5078393;28;47385;-77
2022/08/26 06:02:57;;;;;;;;;1.67;1.67;;;;;;;;5078672;28;45231;-79
2022/08/26 06:05:22;;;;;;;;;1.00;1.00;;;;;;;;5078441;28;45502;-77
2022/08/26 06:10:32;;;;;;;;;0.67;0.67;;;;;;;;5086616;27;45842;-76
2022/08/26 06:12:57;;;;;;;;;5.67;1.00;;;;;;;;5098609;27;45286;-76
2022/08/26 06:15:23;;;;;;;;;1.00;0.33;;;;;;;;5099031;27;45286;-76
2022/08/26 06:17:49;;;;;;;;;0.33;0.00;;;;;;;;5098850;27;45314;-74
2022/08/26 06:20:14;;;;;;;;;2.00;2.00;;;;;;;;5098591;27;46154;-69
2022/08/26 06:25:38;;;;;;;;;2.67;2.00;;;;;;;;5098733;27;45250;-73
2022/08/26 06:28:04;;;;;;;;;1.00;1.00;;;;;;;;5097740;27;47732;-72
2022/08/26 06:30:30;;;;;;;;;2.00;2.00;;;;;;;;5098383;27;46099;-72
2022/08/26 06:32:56;;;;;;;;;3.00;2.00;;;;;;;;5098515;27;45219;-72
2022/08/26 06:35:21;;;;;;;;;3.33;2.00;;;;;;;;5098415;27;45342;-73
2022/08/26 06:37:46;;;;;;;;;1.00;1.00;;;;;;;;5098993;27;45200;-72
2022/08/26 06:40:11;;;;;;;;;2.00;1.00;;;;;;;;5098333;27;46450;-72
2022/08/26 06:42:37;;;;;;;;;1.33;0.00;;;;;;;;5098162;27;45371;-72
2022/08/26 06:45:02;;;;;;;;;1.00;1.00;;;;;;;;5097627;27;45462;-72
2022/08/26 06:47:28;;;;;;;;;2.00;1.00;;;;;;;;5098628;27;45208;-72
2022/08/26 06:49:53;;;;;;;;;1.00;1.00;;;;;;;;5098337;27;45616;-72
2022/08/26 06:52:18;;;;;;;;;2.00;1.00;;;;;;;;5098420;27;45423;-72
2022/08/26 06:54:43;;;;;;;;;4.00;2.67;;;;;;;;5098577;27;45621;-72
2022/08/26 06:57:09;;;;;;;;;2.00;2.00;;;;;;;;5098507;27;45374;-75
2022/08/26 06:59:34;;;;;;;;;3.33;3.33;;;;;;;;5098056;27;46504;-76
2022/08/26 07:02:01;;;;;;;;;4.00;3.67;;;;;;;;5097251;27;45431;-76
2022/08/26 07:04:26;;;;;;;;;3.00;3.00;;;;;;;;5097971;27;45387;-74
2022/08/26 07:06:52;;;;;;;;;1.00;1.00;;;;;;;;5098344;27;45252;-74
2022/08/26 07:09:17;;;;;;;;;3.67;2.00;;;;;;;;5097946;27;46364;-74
2022/08/26 07:11:43;;;;;;;;;1.00;1.00;;;;;;;;5097777;27;45323;-75
2022/08/26 07:14:08;;;;;;;;;2.00;2.00;;;;;;;;5098300;27;45301;-73
2022/08/26 07:16:34;;;;;;;;;2.00;2.00;;;;;;;;5097978;27;45492;-73
2022/08/26 07:18:59;;;;;;;;;1.00;1.00;;;;;;;;5096956;27;45434;-73
2022/08/26 07:21:24;;;;;;;;;3.00;2.00;;;;;;;;5097868;27;45281;-73
2022/08/26 07:23:50;;;;;;;;;1.67;1.00;;;;;;;;5097988;27;45413;-72
2022/08/26 07:26:17;;;;;;;;;1.00;1.00;;;;;;;;5098319;27;45275;-72
2022/08/26 07:28:43;;;;;;;;;4.00;3.00;;;;;;;;5097619;27;46350;-73
2022/08/26 07:31:09;;;;;;;;;3.33;3.33;;;;;;;;5097796;27;45481;-73
2022/08/26 07:33:35;;;;;;;;;8.00;5.33;;;;;;;;5096979;27;45698;-72
2022/08/26 07:36:01;;;;;;;;;4.33;2.00;;;;;;;;5097730;27;45385;-73
2022/08/26 07:38:26;;;;;;;;;3.33;2.00;;;;;;;;5097785;27;45602;-73
2022/08/26 07:40:52;;;;;;;;;1.33;1.33;;;;;;;;5097608;27;45412;-73
2022/08/26 07:43:17;;;;;;;;;4.33;3.33;;;;;;;;5097865;27;45282;-73
2022/08/26 07:45:42;;;;;;;;;2.00;2.00;;;;;;;;5097822;27;45328;-73
2022/08/26 07:48:07;;;;;;;;;2.33;2.00;;;;;;;;5097351;27;46907;-73
2022/08/26 07:50:33;;;;;;;;;3.00;3.00;;;;;;;;5096587;27;45236;-73
2022/08/26 07:53:00;;;;;;;;;4.00;1.00;;;;;;;;5098266;27;45339;-73
2022/08/26 07:55:26;;;;;;;;;3.00;2.00;;;;;;;;5101338;27;45408;-72
2022/08/26 07:57:52;;;;;;;;;1.00;1.00;;;;;;;;5100840;27;46717;-72
2022/08/26 08:00:17;;;;;;;;;1.00;1.00;;;;;;;;5101064;27;45509;-72
2022/08/26 08:02:45;;;;;;;;;2.00;0.00;;;;;;;;5101075;27;45386;-73
2022/08/26 08:05:12;;;;;;;;;1.00;1.00;;;;;;;;5100886;27;45269;-73
2022/08/26 08:07:37;;;;;;;;;1.00;1.00;;;;;;;;5099747;27;46283;-72
2022/08/26 08:10:03;;;;;;;;;3.00;2.00;;;;;;;;5100805;27;45379;-73
2022/08/26 08:12:28;;;;;;;;;0.67;0.33;;;;;;;;5100910;27;45320;-74
2022/08/26 08:14:53;;;;;;;;;1.00;1.00;;;;;;;;5103435;27;45409;-72
2022/08/26 08:17:19;;;;;;;;;1.00;1.00;;;;;;;;5109175;27;46737;-77
2022/08/26 08:19:44;;;;;;;;;2.00;2.00;;;;;;;;5100788;27;45332;-75
2022/08/26 08:22:09;;;;;;;;;1.33;1.33;;;;;;;;5100665;27;45613;-73
2022/08/26 08:24:36;;;;;;;;;1.00;1.00;;;;;;;;5099588;27;45478;-75
2022/08/26 08:27:02;;;;;;;;;1.00;1.00;;;;;;;;5100660;27;46619;-72
2022/08/26 08:29:28;;;;;;;;;1.00;1.00;;;;;;;;5100488;27;45261;-71
2022/08/26 08:31:56;;;;;;;;;1.67;1.67;;;;;;;;5100524;27;45364;-74
2022/08/26 08:34:22;;;;;;;;;1.00;1.00;;;;;;;;5100694;27;45327;-77
2022/08/26 08:36:48;;;;;;;;;0.67;0.67;;;;;;;;5100239;27;45382;-69
2022/08/26 08:39:13;;;;;;;;;1.33;1.00;;;;;;;;5100539;27;45359;-71
2022/08/26 08:41:38;;;;;;;;;1.00;1.00;;;;;;;;5099356;27;45343;-74
2022/08/26 08:44:07;;;;;;;;;11.00;8.00;;;;;;;;5100462;27;45365;-70
2022/08/26 08:46:33;;;;;;;;;0.00;0.00;;;;;;;;5100109;27;45378;-70
2022/08/26 08:48:59;;;;;;;;;3.00;3.00;;;;;;;;5100213;27;45216;-71
2022/08/26 08:51:41;;;;;;;;;1.00;1.00;;;;;;;;5100362;27;45184;-70
2022/08/26 08:54:07;;;;;;;;;0.00;0.00;;;;;;;;5100608;27;45380;-74
2022/08/26 08:56:37;;;;;;;;;2.00;2.00;;;;;;;;5099904;27;46646;-75
2022/08/26 08:59:11;;;;;;;;;3.33;3.00;;;;;;;;5098723;27;45373;-72
2022/08/26 09:01:39;;;;;;;;;0.00;0.00;;;;;;;;5100095;27;45311;-72
2022/08/26 09:04:13;;;;;;;;;2.67;2.00;;;;;;;;5100204;27;45453;-74
2022/08/26 09:06:39;;;;;;;;;1.00;1.00;;;;;;;;5099669;27;46265;-77
2022/08/26 09:09:06;;;;;;;;;0.00;0.00;;;;;;;;5100196;27;45293;-76
2022/08/26 09:11:34;;;;;;;;;0.33;0.33;;;;;;;;5099961;27;45296;-74
2022/08/26 09:13:59;;;;;;;;;2.33;1.00;;;;;;;;5099100;27;45339;-75
2022/08/26 09:16:31;;;;;;;;;4.00;4.00;;;;;;;;5099674;27;45426;-73
2022/08/26 09:19:10;;;;;;;;;1.67;1.67;;;;;;;;5099791;27;45404;-71
2022/08/26 09:21:35;;;;;;;;;4.00;4.00;;;;;;;;5099623;27;45389;-73
2022/08/26 09:24:00;;;;;;;;;1.00;1.00;;;;;;;;5099934;27;45225;-71
2022/08/26 09:26:25;;;;;;;;;1.00;1.00;;;;;;;;5099430;27;47435;-75
2022/08/26 09:28:54;;;;;;;;;0.33;0.00;;;;;;;;5099661;27;45391;-71
2022/08/26 09:31:23;;;;;;;;;2.67;1.00;;;;;;;;5098575;27;45416;-72
2022/08/26 09:34:02;;;;;;;;;2.00;2.00;;;;;;;;5099553;27;45509;-74
2022/08/26 09:36:38;;;;;;;;;1.00;1.00;;;;;;;;5099052;27;46624;-73
2022/08/26 09:39:10;;;;;;;;;0.00;0.00;;;;;;;;5099522;27;45340;-72
2022/08/26 09:41:35;;;;;;;;;2.00;0.00;;;;;;;;5099457;27;45352;-73
2022/08/26 09:44:07;;;;;;;;;1.00;0.67;;;;;;;;5099518;27;45545;-71
2022/08/26 09:46:32;;;;;;;;;1.00;1.00;;;;;;;;5097952;27;45624;-69
2022/08/26 09:49:17;;;;;;;;;7.00;7.00;;;;;;;;5099105;27;45497;-71
2022/08/26 09:51:43;;;;;;;;;3.00;1.00;;;;;;;;5098960;27;45346;-73
2022/08/26 09:54:22;;;;;;;;;1.00;1.00;;;;;;;;5099258;27;45494;-73
2022/08/26 09:56:47;;;;;;;;;1.00;1.00;;;;;;;;5099132;27;47359;-75
2022/08/26 09:59:13;;;;;;;;;1.00;1.00;;;;;;;;5098991;27;45424;-74
2022/08/26 10:01:43;;;;;;;;;1.00;1.00;;;;;;;;5099252;27;45387;-76
2022/08/26 10:04:13;;;;;;;;;0.00;0.00;;;;;;;;5098253;27;45546;-75
2022/08/26 10:06:53;;;;;;;;;1.00;1.00;;;;;;;;5097743;27;45324;-76
2022/08/26 10:09:18;;;;;;;;;2.67;1.00;;;;;;;;5098841;27;45215;-75
2022/08/26 10:11:48;;;;;;;;;0.67;0.00;;;;;;;;5099018;27;45240;-74
2022/08/26 10:14:14;;;;;;;;;0.00;0.00;;;;;;;;5098983;27;45349;-78
2022/08/26 10:16:40;;;;;;;;;1.00;1.00;;;;;;;;5097416;27;46569;-75
2022/08/26 10:19:11;;;;;;;;;0.00;0.00;;;;;;;;5097693;27;45366;-72
2022/08/26 10:21:49;;;;;;;;;0.00;0.00;;;;;;;;5098776;27;45339;-70
2022/08/26 10:24:19;;;;;;;;;2.00;0.00;;;;;;;;5098754;27;45425;-73
2022/08/26 10:26:57;;;;;;;;;0.00;0.00;;;;;;;;5098557;27;45616;-72
2022/08/26 10:29:24;;;;;;;;;0.67;0.00;;;;;;;;5098728;27;45317;-74
2022/08/26 10:31:53;;;;;;;;;1.33;1.00;;;;;;;;5098707;27;45429;-69
2022/08/26 10:34:19;;;;;;;;;1.00;0.33;;;;;;;;5098696;27;45453;-68
2022/08/26 10:36:52;;;;;;;;;0.00;0.00;;;;;;;;5096938;27;45227;-72
2022/08/26 10:39:20;;;;;;;;;0.33;0.33;;;;;;;;5098548;27;45272;-73
2022/08/26 10:41:48;;;;;;;;;1.00;0.67;;;;;;;;5098577;27;45287;-73
2022/08/26 10:44:16;;;;;;;;;2.33;0.33;;;;;;;;5098709;27;45477;-73
2022/08/26 10:46:49;;;;;;;;;3.33;3.33;;;;;;;;5098016;27;45416;-75
2022/08/26 10:49:16;;;;;;;;;0.00;0.00;;;;;;;;5106182;27;45429;-74
2022/08/26 10:51:45;;;;;;;;;0.67;0.00;;;;;;;;5119077;27;45430;-74
2022/08/26 10:54:24;;;;;;;;;0.00;0.00;;;;;;;;5092345;27;45327;-74
2022/08/26 10:56:50;;;;;;;;;0.00;0.00;;;;;;;;5078536;27;46282;-73
2022/08/26 10:59:15;;;;;;;;;0.67;0.00;;;;;;;;5076968;28;45438;-73
2022/08/26 11:01:44;;;;;;;;;0.67;0.67;;;;;;;;5077038;28;45387;-72
2022/08/26 11:04:15;;;;;;;;;0.67;0.67;;;;;;;;5077206;28;45484;-75
2022/08/26 11:06:44;;;;;;;;;0.67;0.67;;;;;;;;5075743;28;46546;-75
2022/08/26 11:09:10;;;;;;;;;2.00;2.00;;;;;;;;5076787;28;45709;-74
2022/08/26 11:11:41;;;;;;;;;0.33;0.33;;;;;;;;5093270;27;45456;-74
2022/08/26 11:14:18;;;;;;;;;1.33;0.67;;;;;;;;5097576;27;45332;-73
2022/08/26 11:16:43;;;;;;;;;0.67;0.67;;;;;;;;5096863;27;46289;-74
2022/08/26 11:19:10;;;;;;;;;3.00;3.00;;;;;;;;5097066;27;45363;-75
2022/08/26 11:21:46;;;;;;;;;2.00;2.00;;;;;;;;5097268;27;45397;-75
2022/08/26 11:24:49;;;;;;;;;1.00;1.00;;;;;;;;5097156;27;45277;-75
2022/08/26 11:27:33;;;;;;;;;4.33;1.33;;;;;;;;4999137;28;46585;-75
2022/08/26 11:30:01;;;;;;;;;1.00;1.00;;;;;;;;4997706;28;45331;-74
2022/08/26 11:32:32;;;;;;;;;2.00;2.00;;;;;;;;4997837;28;45482;-74
2022/08/26 11:34:59;;;;;;;;;2.00;2.00;;;;;;;;4997712;28;45365;-74
2022/08/26 11:37:28;;;;;;;;;3.00;1.33;;;;;;;;4997109;28;46871;-74
2022/08/26 11:39:53;;;;;;;;;2.00;2.00;;;;;;;;4997604;28;45450;-74
2022/08/26 11:42:18;;;;;;;;;1.00;1.00;;;;;;;;4997989;28;45527;-74
2022/08/26 11:44:44;;;;;;;;;1.00;1.00;;;;;;;;5017523;28;45436;-75
2022/08/26 11:47:12;;;;;;;;;1.00;1.00;;;;;;;;5017313;28;46352;-76
2022/08/26 11:49:37;;;;;;;;;2.00;1.00;;;;;;;;5017478;28;45442;-76
2022/08/26 11:52:14;;;;;;;;;1.33;1.33;;;;;;;;5011733;28;45633;-75
2022/08/26 11:54:39;;;;;;;;;1.00;1.00;;;;;;;;5017360;28;45382;-75
2022/08/26 11:57:06;;;;;;;;;3.00;1.00;;;;;;;;5026608;27;47072;-74
2022/08/26 11:59:35;;;;;;;;;0.00;0.00;;;;;;;;5099521;27;45458;-75
2022/08/26 12:02:00;;;;;;;;;1.00;1.00;;;;;;;;5099024;27;45386;-74
2022/08/26 12:04:28;;;;;;;;;1.00;1.00;;;;;;;;5100234;27;45465;-76
2022/08/26 12:06:55;;;;;;;;;0.00;0.00;;;;;;;;5099785;27;46309;-76
2022/08/26 12:09:21;;;;;;;;;4.00;4.00;;;;;;;;5098940;27;45509;-74
2022/08/26 12:11:47;;;;;;;;;1.00;1.00;;;;;;;;5100108;27;45431;-74
2022/08/26 12:14:17;;;;;;;;;0.00;0.00;;;;;;;;5100085;27;45433;-74
2022/08/26 12:16:42;;;;;;;;;0.00;0.00;;;;;;;;5093199;27;46338;-74
2022/08/26 12:19:26;;;;;;;;;1.67;1.67;;;;;;;;5078055;28;45474;-73
2022/08/26 12:22:00;;;;;;;;;1.00;1.00;;;;;;;;5079219;28;45490;-74
2022/08/26 12:24:25;;;;;;;;;1.00;1.00;;;;;;;;5079502;28;45435;-75
2022/08/26 12:27:02;;;;;;;;;2.33;1.00;;;;;;;;5078938;28;46612;-73
2022/08/26 12:29:28;;;;;;;;;1.67;1.67;;;;;;;;5079249;28;45404;-74
2022/08/26 12:32:16;;;;;;;;;1.67;1.67;;;;;;;;5079225;28;45429;-76
2022/08/26 12:34:42;;;;;;;;;1.67;1.67;;;;;;;;5079097;28;45338;-74
2022/08/26 12:37:09;;;;;;;;;1.00;1.00;;;;;;;;5059703;28;45409;-75
2022/08/26 12:39:35;;;;;;;;;1.33;1.00;;;;;;;;5058242;28;45503;-76
2022/08/26 12:42:19;;;;;;;;;2.00;2.00;;;;;;;;5059003;28;45421;-74
2022/08/26 12:44:49;;;;;;;;;0.00;0.00;;;;;;;;5059017;28;45469;-75
2022/08/26 12:47:14;;;;;;;;;0.00;0.00;;;;;;;;5058576;28;46294;-75
2022/08/26 12:49:41;;;;;;;;;0.00;0.00;;;;;;;;5058551;28;45309;-75
2022/08/26 12:52:08;;;;;;;;;1.33;1.33;;;;;;;;5058785;28;45339;-74
2022/08/26 12:57:24;;;;;;;;;8.00;8.00;;;;;;;;5078679;28;45758;-76
2022/08/26 12:59:49;;;;;;;;;1.00;0.67;;;;;;;;5078685;28;45423;-74
2022/08/26 13:02:33;;;;;;;;;3.00;1.00;;;;;;;;5078875;28;45715;-74
2022/08/26 13:04:58;;;;;;;;;1.00;1.00;;;;;;;;5078788;28;45484;-73
2022/08/26 13:07:25;;;;;;;;;0.67;0.67;;;;;;;;5078311;28;46446;-77
2022/08/26 13:09:51;;;;;;;;;3.00;3.00;;;;;;;;5076587;28;47213;-71
2022/08/26 13:12:24;;;;;;;;;1.00;1.00;;;;;;;;5078577;28;45555;-71
2022/08/26 13:14:49;;;;;;;;;1.00;1.00;;;;;;;;5078583;28;45477;-71
2022/08/26 13:17:15;;;;;;;;;2.00;1.00;;;;;;;;5089200;27;46607;-70
2022/08/26 13:19:41;;;;;;;;;1.00;1.00;;;;;;;;5098717;27;45482;-71
2022/08/26 13:22:10;;;;;;;;;1.00;1.00;;;;;;;;5099037;27;45303;-72
2022/08/26 13:24:38;;;;;;;;;0.00;0.00;;;;;;;;5098002;27;45485;-75
2022/08/26 13:27:05;;;;;;;;;1.00;0.67;;;;;;;;5098600;27;45501;-71
2022/08/26 13:29:30;;;;;;;;;1.67;1.00;;;;;;;;5098792;27;45344;-70
2022/08/26 13:31:56;;;;;;;;;1.33;0.00;;;;;;;;5098821;27;45762;-72
2022/08/26 13:34:22;;;;;;;;;4.00;1.00;;;;;;;;5099030;27;45387;-72
2022/08/26 13:36:48;;;;;;;;;1.00;1.00;;;;;;;;5098199;27;46265;-74
2022/08/26 13:39:13;;;;;;;;;3.00;0.00;;;;;;;;5098313;27;45446;-75
2022/08/26 13:41:39;;;;;;;;;5.00;1.00;;;;;;;;5097866;27;45449;-76
2022/08/26 13:44:04;;;;;;;;;1.00;1.00;;;;;;;;5098816;27;45568;-76
2022/08/26 13:46:29;;;;;;;;;1.00;1.00;;;;;;;;5097996;27;46080;-72
2022/08/26 13:48:55;;;;;;;;;1.00;0.67;;;;;;;;5098381;27;45425;-70
2022/08/26 13:51:21;;;;;;;;;1.33;1.33;;;;;;;;5097470;27;45314;-74
2022/08/26 13:53:47;;;;;;;;;3.00;1.00;;;;;;;;5098585;27;45587;-78
2022/08/26 13:56:12;;;;;;;;;2.00;0.00;;;;;;;;5097291;27;46072;-73
2022/08/26 13:58:37;;;;;;;;;1.00;1.00;;;;;;;;5098426;27;45319;-75
2022/08/26 14:01:03;;;;;;;;;1.00;1.00;;;;;;;;5090086;27;45378;-78
2022/08/26 14:03:28;;;;;;;;;2.00;1.00;;;;;;;;5092797;27;45483;-77
2022/08/26 14:05:53;;;;;;;;;1.33;1.00;;;;;;;;5096849;27;45601;-76
2022/08/26 14:08:19;;;;;;;;;1.00;1.00;;;;;;;;5077648;28;45615;-75
2022/08/26 14:10:46;;;;;;;;;2.67;1.00;;;;;;;;5077739;28;45327;-72
2022/08/26 14:13:11;;;;;;;;;0.33;0.33;;;;;;;;5078359;27;45468;-72
2022/08/26 14:15:37;;;;;;;;;2.00;1.00;;;;;;;;5097909;27;45861;-72
2022/08/26 14:18:03;;;;;;;;;1.33;0.00;;;;;;;;5097689;27;45419;-72
2022/08/26 14:20:30;;;;;;;;;2.00;0.00;;;;;;;;5097955;27;45364;-73
2022/08/26 14:22:55;;;;;;;;;1.00;1.00;;;;;;;;5097978;27;45480;-72
2022/08/26 14:25:21;;;;;;;;;1.00;1.00;;;;;;;;5100683;27;46262;-73
2022/08/26 14:27:51;;;;;;;;;0.33;0.00;;;;;;;;5105575;27;45409;-71
2022/08/26 14:30:17;;;;;;;;;1.00;1.00;;;;;;;;5097892;27;45383;-74
2022/08/26 14:32:44;;;;;;;;;2.00;1.00;;;;;;;;5097881;27;45372;-74
2022/08/26 14:35:11;;;;;;;;;0.33;0.33;;;;;;;;5097497;27;46594;-73
2022/08/26 14:37:36;;;;;;;;;5.33;4.00;;;;;;;;5097803;27;45382;-74
2022/08/26 14:40:04;;;;;;;;;1.67;1.67;;;;;;;;5097745;27;45419;-71
2022/08/26 14:42:29;;;;;;;;;1.00;1.00;;;;;;;;5097993;27;45686;-68
2022/08/26 14:44:57;;;;;;;;;0.33;0.33;;;;;;;;5097245;27;46339;-70
2022/08/26 14:47:22;;;;;;;;;1.00;1.00;;;;;;;;5097639;27;45456;-68
2022/08/26 14:49:47;;;;;;;;;2.00;2.00;;;;;;;;5097731;27;45378;-68
2022/08/26 14:52:12;;;;;;;;;1.67;1.00;;;;;;;;5096578;27;45408;-71
2022/08/26 14:54:37;;;;;;;;;1.00;1.00;;;;;;;;5097323;27;45884;-68
2022/08/26 14:57:06;;;;;;;;;1.33;1.33;;;;;;;;5097372;27;45339;-68